createdAt,value
2022-09-11T00:00:56.414Z,98.55
2022-09-11T00:03:24.624Z,98.65
2022-09-11T00:05:52.096Z,98.74
2022-09-11T00:08:20.347Z,98.76
2022-09-11T00:10:48.394Z,99.22
2022-09-11T00:13:21.270Z,99.61
2022-09-11T00:15:50.836Z,99.36
2022-09-11T00:18:23.399Z,99.16
2022-09-11T00:20:55.197Z,99.42
2022-09-11T00:23:23.838Z,99.23
2022-09-11T00:25:51.108Z,98.95
2022-09-11T00:28:23.493Z,98.54
2022-09-11T00:31:07.800Z,98.49
2022-09-11T00:33:35.607Z,98.32
2022-09-11T00:36:08.485Z,98.40
2022-09-11T00:38:37.692Z,98.09
2022-09-11T00:41:06.419Z,97.94
2022-09-11T00:43:51.162Z,97.76
2022-09-11T00:46:17.719Z,97.34
2022-09-11T00:48:49.791Z,97.49
2022-09-11T00:51:26.623Z,97.31
2022-09-11T00:53:56.315Z,96.66
2022-09-11T00:56:26.380Z,96.45
2022-09-11T00:58:55.974Z,96.35
2022-09-11T01:01:22.532Z,96.45
2022-09-11T01:03:49.147Z,96.36
2022-09-11T01:06:16.095Z,96.58
2022-09-11T01:08:43.335Z,96.01
2022-09-11T01:11:18.808Z,95.64
2022-09-11T01:14:00.279Z,95.96
2022-09-11T01:16:54.010Z,96.22
2022-09-11T01:19:47.580Z,96.06
2022-09-11T01:22:17.001Z,95.67
2022-09-11T01:25:15.645Z,96.13
2022-09-11T01:27:48.294Z,95.79
2022-09-11T01:30:21.073Z,95.90
2022-09-11T01:32:59.806Z,95.61
2022-09-11T01:35:34.032Z,95.80
2022-09-11T01:38:24.084Z,96.01
2022-09-11T01:40:54.102Z,96.31
2022-09-11T01:43:27.122Z,96.22
2022-09-11T01:45:56.872Z,96.01
2022-09-11T01:48:32.220Z,95.88
2022-09-11T01:51:01.110Z,95.77
2022-09-11T01:53:33.959Z,95.90
2022-09-11T01:56:05.684Z,96.33
2022-09-11T01:58:36.386Z,96.70
2022-09-11T02:01:19.362Z,96.59
2022-09-11T02:03:54.652Z,96.90
2022-09-11T02:06:47.582Z,97.02
2022-09-11T02:09:18.012Z,96.83
2022-09-11T02:11:48.455Z,97.00
2022-09-11T02:14:34.289Z,97.90
2022-09-11T02:17:51.040Z,97.98
2022-09-11T02:20:17.872Z,97.64
2022-09-11T02:22:44.526Z,98.18
2022-09-11T02:25:11.594Z,99.08
2022-09-11T02:27:38.047Z,99.00
2022-09-11T02:30:05.276Z,99.04
2022-09-11T02:32:36.536Z,99.13
2022-09-11T02:35:03.802Z,99.01
2022-09-11T02:37:46.526Z,100.00
2022-09-11T02:40:27.174Z,100.00
2022-09-11T02:43:05.847Z,100.00
2022-09-11T02:46:00.499Z,100.00
2022-09-11T02:49:04.046Z,100.00
2022-09-11T02:52:00.164Z,100.00
2022-09-11T02:54:41.588Z,100.00
2022-09-11T02:57:16.010Z,100.00
2022-09-11T02:59:47.000Z,100.00
2022-09-11T03:02:15.507Z,100.00
2022-09-11T03:04:42.138Z,100.00
2022-09-11T03:07:09.206Z,100.00
2022-09-11T03:09:35.781Z,100.00
2022-09-11T03:12:04.524Z,100.00
2022-09-11T03:14:31.288Z,100.00
2022-09-11T03:16:57.814Z,100.00
2022-09-11T03:19:25.027Z,100.00
2022-09-11T03:21:51.561Z,100.00
2022-09-11T03:24:18.282Z,100.00
2022-09-11T03:26:44.824Z,100.00
2022-09-11T03:29:11.611Z,100.00
2022-09-11T03:31:39.417Z,100.00
2022-09-11T03:34:06.511Z,100.00
2022-09-11T03:36:34.467Z,100.00
2022-09-11T03:39:01.530Z,100.00
2022-09-11T03:41:28.357Z,100.00
2022-09-11T03:43:54.947Z,100.00
2022-09-11T03:46:21.533Z,100.00
2022-09-11T03:48:48.022Z,100.00
2022-09-11T03:51:15.276Z,100.00
2022-09-11T03:53:42.655Z,100.00
2022-09-11T03:56:09.240Z,100.00
2022-09-11T03:58:35.846Z,100.00
2022-09-11T04:01:08.709Z,100.00
2022-09-11T04:03:35.288Z,100.00
2022-09-11T04:06:03.492Z,100.00
2022-09-11T04:08:33.924Z,100.00
2022-09-11T04:11:03.014Z,100.00
2022-09-11T04:13:34.748Z,100.00
2022-09-11T04:16:03.754Z,100.00
2022-09-11T04:18:32.485Z,100.00
2022-09-11T04:20:58.936Z,100.00
2022-09-11T04:23:25.444Z,100.00
2022-09-11T04:25:52.501Z,100.00
2022-09-11T04:28:19.780Z,100.00
2022-09-11T04:30:46.290Z,100.00
2022-09-11T04:33:12.814Z,100.00
2022-09-11T04:35:40.424Z,100.00
2022-09-11T04:38:08.115Z,100.00
2022-09-11T04:40:35.152Z,100.00
2022-09-11T04:43:02.432Z,100.00
2022-09-11T04:45:33.466Z,100.00
2022-09-11T04:48:00.948Z,100.00
2022-09-11T04:50:28.967Z,100.00
2022-09-11T04:52:55.467Z,100.00
2022-09-11T04:55:22.038Z,100.00
2022-09-11T04:57:48.705Z,100.00
2022-09-11T05:00:15.658Z,100.00
2022-09-11T05:02:42.177Z,100.00
2022-09-11T05:05:09.392Z,100.00
2022-09-11T05:07:36.549Z,100.00
2022-09-11T05:10:03.193Z,100.00
2022-09-11T05:12:31.087Z,100.00
2022-09-11T05:14:57.892Z,100.00
2022-09-11T05:17:24.330Z,100.00
2022-09-11T05:19:50.994Z,100.00
2022-09-11T05:22:17.454Z,100.00
2022-09-11T05:24:43.905Z,100.00
2022-09-11T05:27:11.999Z,100.00
2022-09-11T05:29:39.191Z,100.00
2022-09-11T05:32:06.071Z,100.00
2022-09-11T05:34:32.544Z,100.00
2022-09-11T05:36:59.112Z,100.00
2022-09-11T05:39:25.603Z,100.00
2022-09-11T05:41:52.636Z,100.00
2022-09-11T05:44:19.871Z,100.00
2022-09-11T05:46:46.597Z,100.00
2022-09-11T05:49:13.082Z,100.00
2022-09-11T05:51:41.660Z,100.00
2022-09-11T05:54:08.287Z,100.00
2022-09-11T05:56:34.907Z,100.00
2022-09-11T05:59:02.584Z,100.00
2022-09-11T06:01:30.484Z,100.00
2022-09-11T06:03:57.997Z,100.00
2022-09-11T06:06:25.194Z,100.00
2022-09-11T06:08:52.944Z,100.00
2022-09-11T06:11:21.351Z,100.00
2022-09-11T06:13:48.294Z,100.00
2022-09-11T06:16:20.697Z,100.00
2022-09-11T06:18:51.083Z,100.00
2022-09-11T06:21:20.620Z,100.00
2022-09-11T06:23:48.830Z,100.00
2022-09-11T06:26:17.482Z,100.00
2022-09-11T06:28:44.050Z,100.00
2022-09-11T06:31:13.476Z,100.00
2022-09-11T06:33:41.081Z,100.00
2022-09-11T06:36:11.280Z,100.00
2022-09-11T06:38:40.904Z,100.00
2022-09-11T06:41:12.415Z,100.00
2022-09-11T06:43:38.862Z,100.00
2022-09-11T06:46:12.509Z,100.00
2022-09-11T06:48:43.634Z,100.00
2022-09-11T06:51:13.960Z,100.00
2022-09-11T06:53:41.514Z,100.00
2022-09-11T06:56:12.834Z,100.00
2022-09-11T06:58:40.101Z,100.00
2022-09-11T07:01:27.071Z,100.00
2022-09-11T07:03:54.878Z,100.00
2022-09-11T07:06:27.219Z,100.00
2022-09-11T07:09:01.618Z,100.00
2022-09-11T07:11:35.356Z,100.00
2022-09-11T07:14:06.418Z,100.00
2022-09-11T07:16:33.557Z,100.00
2022-09-11T07:19:00.267Z,100.00
2022-09-11T07:21:28.109Z,100.00
2022-09-11T07:23:57.124Z,100.00
2022-09-11T07:26:26.326Z,100.00
2022-09-11T07:28:54.680Z,100.00
2022-09-11T07:31:24.109Z,100.00
2022-09-11T07:33:52.641Z,100.00
2022-09-11T07:36:21.534Z,100.00
2022-09-11T07:38:49.662Z,100.00
2022-09-11T07:41:18.073Z,100.00
2022-09-11T07:43:51.036Z,100.00
2022-09-11T07:46:17.670Z,100.00
2022-09-11T07:48:44.919Z,100.00
2022-09-11T07:51:13.399Z,100.00
2022-09-11T07:53:50.969Z,100.00
2022-09-11T07:56:23.195Z,100.00
2022-09-11T07:58:50.794Z,99.18
2022-09-11T08:01:20.746Z,98.54
2022-09-11T08:03:47.454Z,96.86
2022-09-11T08:06:21.934Z,96.24
2022-09-11T08:08:52.745Z,97.05
2022-09-11T08:11:19.780Z,97.34
2022-09-11T08:13:51.385Z,96.50
2022-09-11T08:16:24.587Z,95.07
2022-09-11T08:18:52.288Z,96.00
2022-09-11T08:21:19.303Z,96.19
2022-09-11T08:23:46.393Z,96.09
2022-09-11T08:26:22.532Z,95.55
2022-09-11T08:28:50.699Z,94.77
2022-09-11T08:31:18.467Z,94.42
2022-09-11T08:33:45.779Z,94.12
2022-09-11T08:36:16.108Z,94.40
2022-09-11T08:38:44.285Z,94.83
2022-09-11T08:41:13.101Z,94.93
2022-09-11T08:43:51.399Z,94.11
2022-09-11T08:46:20.962Z,94.89
2022-09-11T08:49:02.710Z,95.72
2022-09-11T08:51:31.508Z,96.19
2022-09-11T08:54:00.118Z,96.51
2022-09-11T08:56:29.950Z,95.64
2022-09-11T08:59:15.165Z,96.29
2022-09-11T09:02:22.296Z,96.03
2022-09-11T09:05:20.573Z,95.87
2022-09-11T09:08:04.853Z,97.08
2022-09-11T09:10:52.161Z,97.43
2022-09-11T09:13:36.868Z,97.64
2022-09-11T09:16:19.247Z,96.34
2022-09-11T09:18:55.945Z,95.97
2022-09-11T09:21:37.546Z,95.85
2022-09-11T09:24:19.404Z,96.20
2022-09-11T09:26:50.861Z,96.28
2022-09-11T09:29:23.591Z,95.55
2022-09-11T09:32:04.371Z,96.27
2022-09-11T09:34:36.161Z,96.16
2022-09-11T09:37:06.167Z,96.78
2022-09-11T09:39:36.179Z,96.13
2022-09-11T09:42:14.526Z,95.60
2022-09-11T09:45:01.108Z,95.96
2022-09-11T09:47:29.718Z,95.17
2022-09-11T09:49:58.449Z,94.12
2022-09-11T09:52:43.518Z,93.11
2022-09-11T09:55:18.909Z,93.24
2022-09-11T09:57:45.379Z,93.37
2022-09-11T10:00:15.015Z,93.73
2022-09-11T10:02:55.088Z,93.69
2022-09-11T10:05:29.451Z,92.90
2022-09-11T10:08:05.959Z,92.92
2022-09-11T10:10:36.335Z,93.12
2022-09-11T10:13:19.028Z,93.10
2022-09-11T10:15:49.143Z,93.22
2022-09-11T10:18:37.682Z,92.94
2022-09-11T10:21:13.234Z,92.80
2022-09-11T10:23:47.156Z,92.53
2022-09-11T10:26:26.893Z,92.43
2022-09-11T10:28:56.186Z,92.35
2022-09-11T10:31:22.929Z,92.04
2022-09-11T10:33:56.566Z,91.82
2022-09-11T10:36:25.965Z,92.22
2022-09-11T10:38:53.008Z,91.46
2022-09-11T10:41:22.722Z,91.73
2022-09-11T10:43:52.912Z,91.60
2022-09-11T10:46:19.339Z,92.42
2022-09-11T10:49:19.677Z,92.63
2022-09-11T10:52:08.062Z,93.30
2022-09-11T10:55:12.995Z,91.95
2022-09-11T10:57:45.813Z,93.10
2022-09-11T11:00:25.532Z,94.22
2022-09-11T11:03:05.292Z,94.28
2022-09-11T11:05:46.981Z,93.48
2022-09-11T11:08:30.199Z,92.84
2022-09-11T11:11:14.836Z,92.49
2022-09-11T11:14:13.262Z,93.16
2022-09-11T11:17:09.096Z,93.06
2022-09-11T11:20:12.620Z,94.19
2022-09-11T11:23:05.910Z,93.00
2022-09-11T11:25:51.048Z,92.37
2022-09-11T11:28:31.806Z,92.36
2022-09-11T11:31:19.315Z,91.46
2022-09-11T11:34:14.105Z,91.12
2022-09-11T11:36:46.725Z,91.58
2022-09-11T11:39:30.577Z,91.77
2022-09-11T11:42:16.912Z,90.41
2022-09-11T11:44:52.023Z,89.60
2022-09-11T11:47:25.317Z,89.46
2022-09-11T11:50:13.668Z,88.61
2022-09-11T11:52:56.455Z,88.59
2022-09-11T11:55:43.261Z,88.37
2022-09-11T11:58:58.719Z,84.41
2022-09-11T12:01:44.299Z,84.17
2022-09-11T12:04:35.221Z,84.24
2022-09-11T12:07:04.172Z,84.90
2022-09-11T12:09:33.946Z,85.46
2022-09-11T12:12:06.170Z,84.53
2022-09-11T12:14:34.270Z,85.38
2022-09-11T12:17:19.154Z,84.79
2022-09-11T12:20:13.482Z,85.01
2022-09-11T12:22:48.794Z,85.66
2022-09-11T12:25:21.558Z,85.96
2022-09-11T12:27:50.906Z,85.56
2022-09-11T12:30:17.513Z,85.67
2022-09-11T12:32:52.330Z,85.43
2022-09-11T12:35:31.508Z,85.52
2022-09-11T12:38:03.877Z,86.20
2022-09-11T12:40:40.068Z,85.80
2022-09-11T12:43:17.032Z,85.72
2022-09-11T12:45:43.974Z,84.70
2022-09-11T12:48:14.638Z,84.58
2022-09-11T12:50:54.144Z,85.24
2022-09-11T12:53:25.355Z,85.01
2022-09-11T12:56:01.504Z,84.45
2022-09-11T12:58:41.742Z,84.05
2022-09-11T13:01:11.751Z,83.51
2022-09-11T13:03:48.674Z,83.73
2022-09-11T13:06:16.176Z,84.04
2022-09-11T13:08:56.620Z,84.15
2022-09-11T13:11:39.902Z,83.93
2022-09-11T13:14:29.149Z,80.50
2022-09-11T13:17:12.180Z,81.76
2022-09-11T13:19:39.356Z,80.03
2022-09-11T13:22:34.595Z,80.26
2022-09-11T13:25:13.543Z,80.96
2022-09-11T13:27:44.008Z,80.04
2022-09-11T13:30:15.470Z,80.04
2022-09-11T13:32:43.390Z,79.92
2022-09-11T13:35:16.480Z,78.90
2022-09-11T13:37:58.269Z,78.38
2022-09-11T13:40:31.327Z,78.68
2022-09-11T13:43:00.801Z,79.06
2022-09-11T13:45:28.751Z,78.81
2022-09-11T13:47:55.592Z,79.58
2022-09-11T13:50:23.511Z,79.11
2022-09-11T13:52:53.393Z,79.00
2022-09-11T13:55:23.625Z,78.88
2022-09-11T13:57:56.233Z,78.62
2022-09-11T14:00:44.918Z,77.84
2022-09-11T14:03:24.581Z,78.84
2022-09-11T14:05:55.054Z,79.34
2022-09-11T14:08:56.278Z,79.18
2022-09-11T14:11:31.486Z,79.57
2022-09-11T14:14:06.915Z,79.67
2022-09-11T14:16:36.636Z,79.05
2022-09-11T14:19:17.978Z,78.41
2022-09-11T14:21:47.222Z,78.58
2022-09-11T14:24:27.164Z,78.73
2022-09-11T14:26:58.152Z,78.57
2022-09-11T14:29:38.443Z,78.89
2022-09-11T14:32:34.778Z,78.75
2022-09-11T14:35:01.403Z,78.85
2022-09-11T14:37:34.650Z,78.66
2022-09-11T14:40:06.715Z,78.37
2022-09-11T14:42:36.728Z,78.18
2022-09-11T14:45:19.812Z,77.48
2022-09-11T14:47:46.762Z,77.63
2022-09-11T14:50:13.662Z,78.49
2022-09-11T14:52:44.920Z,78.34
2022-09-11T14:55:16.637Z,78.70
2022-09-11T14:57:43.461Z,78.81
2022-09-11T15:00:13.582Z,78.28
2022-09-11T15:02:40.041Z,78.36
2022-09-11T15:05:15.583Z,78.85
2022-09-11T15:07:45.494Z,79.16
2022-09-11T15:10:13.622Z,79.75
2022-09-11T15:12:40.298Z,79.64
2022-09-11T15:15:07.314Z,79.82
2022-09-11T15:17:36.388Z,80.17
2022-09-11T15:20:09.240Z,79.96
2022-09-11T15:22:36.514Z,80.09
2022-09-11T15:25:03.641Z,80.71
2022-09-11T15:27:31.630Z,80.48
2022-09-11T15:29:58.109Z,80.52
2022-09-11T15:32:24.644Z,80.33
2022-09-11T15:34:51.728Z,81.42
2022-09-11T15:37:18.269Z,81.21
2022-09-11T15:39:44.884Z,81.41
2022-09-11T15:42:11.820Z,81.25
2022-09-11T15:44:38.330Z,81.57
2022-09-11T15:47:05.114Z,81.86
2022-09-11T15:49:31.810Z,82.06
2022-09-11T15:51:59.670Z,82.20
2022-09-11T15:54:27.254Z,82.99
2022-09-11T15:56:54.309Z,83.21
2022-09-11T15:59:20.792Z,83.70
2022-09-11T16:01:47.595Z,84.21
2022-09-11T16:04:18.721Z,84.48
2022-09-11T16:06:47.645Z,84.83
2022-09-11T16:09:24.543Z,85.62
2022-09-11T16:11:51.884Z,85.88
2022-09-11T16:14:21.154Z,86.45
2022-09-11T16:16:48.142Z,86.79
2022-09-11T16:19:15.713Z,87.51
2022-09-11T16:21:42.246Z,87.61
2022-09-11T16:24:10.000Z,87.46
2022-09-11T16:26:38.308Z,87.29
2022-09-11T16:29:08.755Z,87.63
2022-09-11T16:31:35.921Z,88.58
2022-09-11T16:34:04.115Z,91.21
2022-09-11T16:36:33.760Z,91.93
2022-09-11T16:39:01.123Z,91.99
2022-09-11T16:41:27.593Z,91.49
2022-09-11T16:43:54.161Z,91.05
2022-09-11T16:46:25.368Z,90.83
2022-09-11T16:48:54.952Z,90.98
2022-09-11T16:51:23.523Z,90.88
2022-09-11T16:53:51.053Z,90.75
2022-09-11T16:56:20.012Z,90.82
2022-09-11T16:58:46.951Z,91.09
2022-09-11T17:01:16.611Z,91.98
2022-09-11T17:03:49.331Z,92.73
2022-09-11T17:06:17.017Z,92.74
2022-09-11T17:08:44.621Z,93.53
2022-09-11T17:11:14.531Z,93.77
2022-09-11T17:13:43.252Z,93.10
2022-09-11T17:16:16.142Z,92.41
2022-09-11T17:18:48.103Z,92.27
2022-09-11T17:21:16.322Z,91.93
2022-09-11T17:23:43.540Z,91.48
2022-09-11T17:26:12.643Z,91.30
2022-09-11T17:28:39.725Z,90.72
2022-09-11T17:31:08.609Z,90.33
2022-09-11T17:33:36.616Z,90.18
2022-09-11T17:36:04.494Z,90.51
2022-09-11T17:38:31.135Z,90.66
2022-09-11T17:41:00.057Z,90.70
2022-09-11T17:43:26.760Z,90.50
2022-09-11T17:46:00.906Z,90.19
2022-09-11T17:48:28.670Z,89.98
2022-09-11T17:51:11.166Z,90.55
2022-09-11T17:53:39.962Z,90.06
2022-09-11T17:56:09.802Z,89.65
2022-09-11T17:58:37.062Z,90.06
2022-09-11T18:01:04.576Z,90.51
2022-09-11T18:03:31.893Z,90.18
2022-09-11T18:05:59.454Z,90.02
2022-09-11T18:08:27.109Z,89.34
2022-09-11T18:11:01.184Z,88.01
2022-09-11T18:13:31.407Z,86.77
2022-09-11T18:15:58.154Z,86.21
2022-09-11T18:18:25.103Z,85.40
2022-09-11T18:20:55.395Z,85.43
2022-09-11T18:23:25.340Z,85.86
2022-09-11T18:25:51.819Z,86.10
2022-09-11T18:28:20.010Z,86.05
2022-09-11T18:30:47.543Z,85.98
2022-09-11T18:33:16.739Z,85.90
2022-09-11T18:35:44.234Z,85.41
2022-09-11T18:38:10.972Z,85.85
2022-09-11T18:40:37.483Z,86.36
2022-09-11T18:43:05.442Z,86.11
2022-09-11T18:45:35.188Z,86.23
2022-09-11T18:48:02.008Z,86.20
2022-09-11T18:50:28.919Z,86.41
2022-09-11T18:52:56.561Z,86.28
2022-09-11T18:55:23.106Z,86.21
2022-09-11T18:57:50.711Z,85.67
2022-09-11T19:00:18.192Z,84.89
2022-09-11T19:02:45.873Z,84.55
2022-09-11T19:05:15.506Z,85.07
2022-09-11T19:07:43.923Z,85.51
2022-09-11T19:10:11.738Z,85.93
2022-09-11T19:12:39.065Z,86.26
2022-09-11T19:15:07.183Z,86.11
2022-09-11T19:17:34.286Z,85.44
2022-09-11T19:20:00.857Z,85.75
2022-09-11T19:22:29.001Z,86.11
2022-09-11T19:24:55.479Z,86.13
2022-09-11T19:27:21.947Z,86.61
2022-09-11T19:29:49.010Z,87.16
2022-09-11T19:32:16.307Z,87.39
2022-09-11T19:34:47.301Z,87.26
2022-09-11T19:37:14.547Z,88.15
2022-09-11T19:39:41.227Z,88.70
2022-09-11T19:42:09.292Z,88.67
2022-09-11T19:44:36.091Z,88.81
2022-09-11T19:47:03.024Z,88.61
2022-09-11T19:49:29.936Z,88.45
2022-09-11T19:51:57.249Z,88.23
2022-09-11T19:54:24.045Z,86.91
2022-09-11T19:56:51.165Z,87.43
2022-09-11T19:59:18.665Z,87.69
2022-09-11T20:01:45.372Z,88.13
2022-09-11T20:04:13.537Z,88.29
2022-09-11T20:06:40.140Z,87.54
2022-09-11T20:09:29.893Z,86.79
2022-09-11T20:11:53.731Z,86.84
2022-09-11T20:14:20.185Z,86.80
2022-09-11T20:16:46.650Z,85.90
2022-09-11T20:19:14.972Z,86.59
2022-09-11T20:21:41.720Z,87.03
2022-09-11T20:24:08.259Z,86.81
2022-09-11T20:26:35.637Z,87.64
2022-09-11T20:29:07.805Z,87.78
2022-09-11T20:31:47.878Z,87.99
2022-09-11T20:34:16.665Z,88.18
2022-09-11T20:36:43.288Z,88.11
2022-09-11T20:39:11.731Z,88.48
2022-09-11T20:41:38.281Z,88.86
2022-09-11T20:44:04.780Z,88.72
2022-09-11T20:46:31.494Z,89.38
2022-09-11T20:48:58.240Z,89.57
2022-09-11T20:51:25.065Z,89.72
2022-09-11T20:53:51.634Z,89.46
2022-09-11T20:56:22.413Z,89.05
2022-09-11T20:58:49.696Z,89.18
2022-09-11T21:01:19.591Z,89.76
2022-09-11T21:03:48.624Z,89.49
2022-09-11T21:06:15.782Z,88.91
2022-09-11T21:08:44.338Z,88.33
2022-09-11T21:11:12.259Z,86.88
2022-09-11T21:13:40.551Z,86.58
2022-09-11T21:16:10.256Z,86.07
2022-09-11T21:18:37.506Z,84.14
2022-09-11T21:21:04.440Z,84.11
2022-09-11T21:23:31.408Z,82.85
2022-09-11T21:25:58.352Z,82.64
2022-09-11T21:28:24.862Z,83.21
2022-09-11T21:30:51.438Z,82.89
2022-09-11T21:33:18.564Z,82.84
2022-09-11T21:35:50.149Z,82.87
2022-09-11T21:38:16.612Z,82.25
2022-09-11T21:40:43.072Z,81.46
2022-09-11T21:43:09.556Z,82.04
2022-09-11T21:45:36.011Z,81.90
2022-09-11T21:48:02.752Z,81.88
2022-09-11T21:50:29.240Z,81.22
2022-09-11T21:52:55.714Z,81.50
2022-09-11T21:55:22.184Z,81.70
2022-09-11T21:57:48.759Z,81.45
2022-09-11T22:00:15.450Z,80.67
2022-09-11T22:02:42.112Z,81.15
2022-09-11T22:05:09.561Z,81.24
2022-09-11T22:07:36.060Z,81.69
2022-09-11T22:10:04.484Z,81.68
2022-09-11T22:12:30.992Z,81.31
2022-09-11T22:14:57.570Z,81.66
2022-09-11T22:17:24.457Z,81.63
2022-09-11T22:19:51.215Z,81.45
2022-09-11T22:22:17.821Z,81.33
2022-09-11T22:24:44.300Z,81.57
2022-09-11T22:27:11.294Z,82.10
2022-09-11T22:29:37.843Z,82.01
2022-09-11T22:32:05.412Z,82.44
2022-09-11T22:34:36.482Z,82.91
2022-09-11T22:37:03.627Z,83.02
2022-09-11T22:39:31.778Z,83.06
2022-09-11T22:41:59.704Z,83.22
2022-09-11T22:44:26.597Z,83.57
2022-09-11T22:46:53.398Z,83.59
2022-09-11T22:49:19.868Z,83.81
2022-09-11T22:51:46.389Z,83.67
2022-09-11T22:54:13.920Z,83.87
2022-09-11T22:56:40.483Z,83.86
2022-09-11T22:59:07.256Z,84.13
2022-09-11T23:01:33.995Z,84.30
2022-09-11T23:04:00.463Z,84.63
2022-09-11T23:06:45.564Z,84.94
2022-09-11T23:09:16.746Z,84.78
2022-09-11T23:11:45.099Z,84.76
2022-09-11T23:14:14.341Z,85.34
2022-09-11T23:16:41.220Z,85.19
2022-09-11T23:19:07.855Z,84.98
2022-09-11T23:21:35.842Z,84.94
2022-09-11T23:24:04.725Z,84.97
2022-09-11T23:26:31.266Z,85.17
2022-09-11T23:28:58.366Z,85.21
2022-09-11T23:31:28.794Z,85.59
2022-09-11T23:33:57.767Z,85.55
2022-09-11T23:36:25.567Z,85.84
2022-09-11T23:38:52.395Z,86.24
2022-09-11T23:41:19.358Z,86.45
2022-09-11T23:43:46.050Z,86.42
2022-09-11T23:46:13.181Z,86.35
2022-09-11T23:48:39.774Z,86.28
2022-09-11T23:51:10.487Z,85.94
2022-09-11T23:53:43.378Z,86.01
2022-09-11T23:56:10.995Z,85.70
2022-09-11T23:58:40.244Z,85.96
